createdAt,value
2022-08-31T00:00:59.058Z,101015.34
2022-08-31T00:06:03.576Z,101023.00
2022-08-31T00:11:10.214Z,101020.38
2022-08-31T00:16:13.702Z,101020.16
2022-08-31T00:21:16.601Z,101018.75
2022-08-31T00:26:21.241Z,101021.22
2022-08-31T00:31:24.456Z,101007.13
2022-08-31T00:36:28.080Z,101015.56
2022-08-31T00:41:35.438Z,101002.72
2022-08-31T00:46:40.820Z,101004.38
2022-08-31T00:51:49.462Z,101003.47
2022-08-31T00:56:54.505Z,101006.25
2022-08-31T01:01:57.233Z,101003.84
2022-08-31T01:07:00.394Z,101010.84
2022-08-31T01:12:07.887Z,101009.97
2022-08-31T01:17:10.798Z,100993.28
2022-08-31T01:22:20.209Z,100999.53
2022-08-31T01:27:28.909Z,100991.88
2022-08-31T01:32:31.414Z,101002.41
2022-08-31T01:37:34.273Z,101012.00
2022-08-31T01:42:40.297Z,101010.09
2022-08-31T01:47:42.783Z,101011.13
2022-08-31T01:52:45.233Z,101013.03
2022-08-31T01:57:49.274Z,101009.84
2022-08-31T02:02:51.970Z,101001.75
2022-08-31T02:07:54.765Z,100992.59
2022-08-31T02:12:58.724Z,100988.72
2022-08-31T02:18:01.402Z,100986.31
2022-08-31T02:23:05.411Z,100993.28
2022-08-31T02:28:12.699Z,100995.19
2022-08-31T02:33:15.641Z,101000.47
2022-08-31T02:38:18.580Z,100998.41
2022-08-31T02:43:24.684Z,101004.81
2022-08-31T02:48:27.553Z,101010.66
2022-08-31T02:53:30.105Z,101000.75
2022-08-31T02:58:33.934Z,101005.63
2022-08-31T03:03:37.814Z,101001.88
2022-08-31T03:08:42.284Z,101002.78
2022-08-31T03:13:46.546Z,100993.78
2022-08-31T03:18:49.505Z,101002.91
2022-08-31T03:23:52.010Z,100999.22
2022-08-31T03:28:56.259Z,100995.59
2022-08-31T03:33:59.157Z,100996.38
2022-08-31T03:39:01.676Z,101006.81
2022-08-31T03:44:06.247Z,101006.63
2022-08-31T03:49:10.277Z,101008.88
2022-08-31T03:54:13.152Z,101007.63
2022-08-31T03:59:17.400Z,100998.34
2022-08-31T04:04:19.919Z,101001.41
2022-08-31T04:09:22.433Z,101015.41
2022-08-31T04:14:26.286Z,101018.56
2022-08-31T04:19:31.296Z,101022.72
2022-08-31T04:24:34.250Z,101017.38
2022-08-31T04:29:38.109Z,101012.72
2022-08-31T04:34:40.604Z,101006.00
2022-08-31T04:39:51.013Z,101008.72
2022-08-31T04:44:56.413Z,101010.97
2022-08-31T04:49:58.854Z,101016.25
2022-08-31T04:55:01.375Z,101018.44
2022-08-31T05:00:07.431Z,101020.53
2022-08-31T05:05:10.649Z,101026.34
2022-08-31T05:10:13.330Z,101022.72
2022-08-31T05:15:18.234Z,101028.31
2022-08-31T05:20:20.764Z,101039.38
2022-08-31T05:25:23.444Z,101039.44
2022-08-31T05:30:28.435Z,101046.63
2022-08-31T05:35:31.306Z,101057.38
2022-08-31T05:40:33.873Z,101066.56
2022-08-31T05:45:37.796Z,101059.31
2022-08-31T05:50:40.292Z,101068.59
2022-08-31T05:55:43.191Z,101063.72
2022-08-31T06:00:47.178Z,101057.88
2022-08-31T06:05:50.548Z,101076.44
2022-08-31T06:10:53.011Z,101075.31
2022-08-31T06:15:59.221Z,101084.34
2022-08-31T06:21:03.151Z,101088.63
2022-08-31T06:26:08.180Z,101096.50
2022-08-31T06:31:16.267Z,101097.00
2022-08-31T06:36:22.254Z,101099.78
2022-08-31T06:41:27.308Z,101110.97
2022-08-31T06:46:34.495Z,101112.97
2022-08-31T06:51:38.340Z,101111.22
2022-08-31T06:56:41.321Z,101111.81
2022-08-31T07:01:45.254Z,101110.28
2022-08-31T07:06:47.812Z,101115.81
2022-08-31T07:11:52.210Z,101114.09
2022-08-31T07:16:58.099Z,101126.38
2022-08-31T07:22:02.740Z,101120.78
2022-08-31T07:27:10.050Z,101119.09
2022-08-31T07:32:17.438Z,101131.91
2022-08-31T07:37:37.375Z,101130.25
2022-08-31T07:42:43.471Z,101137.06
2022-08-31T07:47:48.025Z,101129.94
2022-08-31T07:52:54.472Z,101131.22
2022-08-31T07:57:57.750Z,101141.22
2022-08-31T08:03:07.380Z,101143.50
2022-08-31T08:08:13.890Z,101145.63
2022-08-31T08:13:19.311Z,101144.97
2022-08-31T08:18:26.387Z,101141.19
2022-08-31T08:23:29.191Z,101147.13
2022-08-31T08:28:40.828Z,101148.25
2022-08-31T08:33:46.456Z,101148.91
2022-08-31T08:38:51.744Z,101151.06
2022-08-31T08:43:57.365Z,101159.59
2022-08-31T08:49:09.435Z,101156.34
2022-08-31T08:54:15.850Z,101153.78
2022-08-31T08:59:20.368Z,101152.69
2022-08-31T09:04:41.406Z,101154.75
2022-08-31T09:09:54.008Z,101149.34
2022-08-31T09:15:18.931Z,101147.28
2022-08-31T09:20:24.162Z,101142.53
2022-08-31T09:25:33.382Z,101148.19
2022-08-31T09:30:41.508Z,101132.63
2022-08-31T09:35:45.641Z,101140.88
2022-08-31T09:40:51.960Z,101136.78
2022-08-31T09:45:59.041Z,101136.91
2022-08-31T09:51:04.634Z,101130.13
2022-08-31T09:56:17.060Z,101132.81
2022-08-31T10:01:23.462Z,101122.88
2022-08-31T10:06:46.513Z,101117.03
2022-08-31T10:11:51.938Z,101123.91
2022-08-31T10:17:02.602Z,101121.22
2022-08-31T10:22:12.653Z,101118.88
2022-08-31T10:27:21.268Z,101104.72
2022-08-31T10:32:31.404Z,101113.09
2022-08-31T10:37:44.745Z,101111.16
2022-08-31T10:42:59.441Z,101108.16
2022-08-31T10:48:05.259Z,101104.16
2022-08-31T10:53:22.419Z,101113.22
2022-08-31T10:58:36.521Z,101100.66
2022-08-31T11:04:01.733Z,101116.19
2022-08-31T11:09:13.070Z,101103.00
2022-08-31T11:14:45.327Z,101109.41
2022-08-31T11:20:23.908Z,101096.84
2022-08-31T11:25:58.535Z,101104.88
2022-08-31T11:31:07.325Z,101093.72
2022-08-31T11:36:10.278Z,101094.38
2022-08-31T11:41:34.295Z,101099.84
2022-08-31T11:47:05.186Z,101089.00
2022-08-31T11:52:29.446Z,101093.00
2022-08-31T11:57:59.519Z,101085.06
2022-08-31T12:03:09.802Z,101081.53
2022-08-31T12:08:15.336Z,101071.81
2022-08-31T12:13:45.844Z,101077.66
2022-08-31T12:19:08.205Z,101070.22
2022-08-31T12:24:25.858Z,101074.84
2022-08-31T12:29:32.067Z,101074.66
2022-08-31T12:34:38.711Z,101076.09
2022-08-31T12:39:41.172Z,101063.13
2022-08-31T12:44:51.829Z,101060.31
2022-08-31T12:50:09.205Z,101062.78
2022-08-31T12:55:23.527Z,101071.50
2022-08-31T13:00:30.706Z,101058.53
2022-08-31T13:05:35.607Z,101062.53
2022-08-31T13:10:39.821Z,101060.13
2022-08-31T13:15:45.184Z,101053.75
2022-08-31T13:20:48.494Z,101050.09
2022-08-31T13:26:01.175Z,101046.03
2022-08-31T13:31:09.211Z,101048.41
2022-08-31T13:36:32.252Z,101049.88
2022-08-31T13:41:38.145Z,101047.31
2022-08-31T13:46:51.052Z,101046.63
2022-08-31T13:51:53.998Z,101040.19
2022-08-31T13:56:57.650Z,101029.63
2022-08-31T14:02:05.298Z,101047.44
2022-08-31T14:07:08.267Z,101019.53
2022-08-31T14:12:10.890Z,101040.97
2022-08-31T14:17:16.597Z,101035.41
2022-08-31T14:22:29.719Z,101038.69
2022-08-31T14:27:34.462Z,101033.44
2022-08-31T14:32:38.499Z,101040.53
2022-08-31T14:37:42.235Z,101044.47
2022-08-31T14:42:45.313Z,101030.91
2022-08-31T14:47:52.429Z,101029.16
2022-08-31T14:52:55.628Z,101010.88
2022-08-31T14:58:02.792Z,101029.03
2022-08-31T15:03:08.230Z,101031.84
2022-08-31T15:08:11.692Z,101014.22
2022-08-31T15:13:14.379Z,101015.81
2022-08-31T15:18:24.335Z,101009.94
2022-08-31T15:23:28.522Z,101012.25
2022-08-31T15:28:31.574Z,101007.41
2022-08-31T15:33:36.991Z,101007.25
2022-08-31T15:38:41.232Z,101002.66
2022-08-31T15:43:47.356Z,101006.78
2022-08-31T15:48:51.649Z,100999.34
2022-08-31T15:54:20.729Z,100999.25
2022-08-31T15:59:22.980Z,100993.00
2022-08-31T16:04:27.065Z,100991.88
2022-08-31T16:09:29.929Z,100986.63
2022-08-31T16:14:33.454Z,100972.63
2022-08-31T16:19:43.043Z,100976.34
2022-08-31T16:24:47.163Z,100972.41
2022-08-31T16:29:51.765Z,100969.72
2022-08-31T16:34:56.821Z,100979.78
2022-08-31T16:39:59.629Z,100983.53
2022-08-31T16:45:03.009Z,100971.69
2022-08-31T16:50:10.354Z,100980.63
2022-08-31T16:55:16.153Z,100978.56
2022-08-31T17:00:19.540Z,100981.44
2022-08-31T17:05:35.287Z,100982.09
2022-08-31T17:10:38.940Z,100981.81
2022-08-31T17:15:41.652Z,100996.25
2022-08-31T17:20:48.272Z,101000.31
2022-08-31T17:25:50.853Z,101004.13
2022-08-31T17:30:57.491Z,101004.72
2022-08-31T17:36:02.268Z,101010.63
2022-08-31T17:41:06.553Z,101012.97
2022-08-31T17:46:12.589Z,101005.50
2022-08-31T17:51:27.200Z,101008.66
2022-08-31T17:56:34.903Z,101017.44
2022-08-31T18:01:38.439Z,101012.56
2022-08-31T18:06:46.854Z,101026.00
2022-08-31T18:11:49.888Z,101035.97
2022-08-31T18:16:54.908Z,101037.44
2022-08-31T18:21:59.837Z,101046.69
2022-08-31T18:27:03.971Z,101037.19
2022-08-31T18:32:10.924Z,101047.78
2022-08-31T18:37:16.481Z,101044.63
2022-08-31T18:42:42.929Z,101044.59
2022-08-31T18:48:07.136Z,101052.47
2022-08-31T18:53:15.100Z,101063.53
2022-08-31T18:58:18.456Z,101059.25
2022-08-31T19:03:21.472Z,101038.09
2022-08-31T19:08:26.430Z,101046.53
2022-08-31T19:13:31.323Z,101058.41
2022-08-31T19:18:37.209Z,101062.41
2022-08-31T19:23:43.461Z,101062.63
2022-08-31T19:28:48.945Z,101072.22
2022-08-31T19:33:57.113Z,101059.38
2022-08-31T19:39:01.628Z,101063.84
2022-08-31T19:44:08.771Z,101062.63
2022-08-31T19:49:17.336Z,101067.47
2022-08-31T19:54:26.139Z,101064.19
2022-08-31T19:59:30.168Z,101059.31
2022-08-31T20:04:36.071Z,101065.69
2022-08-31T20:09:40.491Z,101062.13
2022-08-31T20:14:44.698Z,101062.88
2022-08-31T20:19:50.012Z,101066.59
2022-08-31T20:24:55.658Z,101070.38
2022-08-31T20:29:58.542Z,101068.72
2022-08-31T20:35:02.376Z,101066.16
2022-08-31T20:40:16.034Z,101070.41
2022-08-31T20:45:18.821Z,101075.25
2022-08-31T20:50:21.346Z,101079.13
2022-08-31T20:55:26.961Z,101072.72
2022-08-31T21:00:30.261Z,101077.13
2022-08-31T21:05:38.915Z,101087.50
2022-08-31T21:10:43.666Z,101082.91
2022-08-31T21:15:47.608Z,101085.31
2022-08-31T21:20:51.541Z,101083.22
2022-08-31T21:25:57.391Z,101076.75
2022-08-31T21:31:18.391Z,101079.59
2022-08-31T21:36:32.858Z,101088.00
2022-08-31T21:41:38.123Z,101082.78
2022-08-31T21:46:41.678Z,101081.59
2022-08-31T21:51:48.617Z,101081.81
2022-08-31T21:56:55.610Z,101095.03
2022-08-31T22:02:00.434Z,101087.34
2022-08-31T22:07:03.565Z,101096.47
2022-08-31T22:12:09.737Z,101097.25
2022-08-31T22:17:13.057Z,101089.59
2022-08-31T22:22:18.017Z,101082.38
2022-08-31T22:27:22.033Z,101097.91
2022-08-31T22:32:25.390Z,101108.94
2022-08-31T22:37:35.874Z,101103.03
2022-08-31T22:42:50.116Z,101101.50
2022-08-31T22:48:02.615Z,101090.38
2022-08-31T22:53:38.103Z,101098.59
2022-08-31T22:59:00.861Z,101090.34
2022-08-31T23:09:40.796Z,101090.88
2022-08-31T23:14:52.897Z,101091.81
2022-08-31T23:20:03.360Z,101093.22
2022-08-31T23:25:16.649Z,101087.84
2022-08-31T23:30:29.890Z,101081.44
2022-08-31T23:35:43.623Z,101068.56
2022-08-31T23:40:53.568Z,101069.41
2022-08-31T23:46:02.908Z,101067.97
2022-08-31T23:51:10.395Z,101074.59
2022-08-31T23:56:14.493Z,101058.72
